sensor_id;sensor_type;location;lat;lon;timestamp;temperature;humidity
20327;DHT22;20947;47.816;9.644;2022-07-29T00:01:45;23.00;54.60
20327;DHT22;20947;47.816;9.644;2022-07-29T00:05:45;23.00;54.50
20327;DHT22;20947;47.816;9.644;2022-07-29T00:09:46;22.90;54.40
20327;DHT22;20947;47.816;9.644;2022-07-29T00:13:47;22.90;54.40
20327;DHT22;20947;47.816;9.644;2022-07-29T00:17:47;23.00;54.50
20327;DHT22;20947;47.816;9.644;2022-07-29T00:21:50;22.90;54.40
20327;DHT22;20947;47.816;9.644;2022-07-29T00:25:51;23.00;54.50
20327;DHT22;20947;47.816;9.644;2022-07-29T00:29:51;22.90;54.40
20327;DHT22;20947;47.816;9.644;2022-07-29T00:33:55;22.90;54.40
20327;DHT22;20947;47.816;9.644;2022-07-29T00:37:56;22.90;54.50
20327;DHT22;20947;47.816;9.644;2022-07-29T00:41:56;22.90;55.10
20327;DHT22;20947;47.816;9.644;2022-07-29T00:46:01;22.90;54.40
20327;DHT22;20947;47.816;9.644;2022-07-29T00:50:04;22.90;54.50
20327;DHT22;20947;47.816;9.644;2022-07-29T00:54:07;22.90;54.40
20327;DHT22;20947;47.816;9.644;2022-07-29T00:58:08;22.90;54.40
20327;DHT22;20947;47.816;9.644;2022-07-29T01:02:09;22.90;54.50
20327;DHT22;20947;47.816;9.644;2022-07-29T01:06:10;22.90;54.40
20327;DHT22;20947;47.816;9.644;2022-07-29T01:10:12;22.90;54.40
20327;DHT22;20947;47.816;9.644;2022-07-29T01:14:14;22.90;54.50
20327;DHT22;20947;47.816;9.644;2022-07-29T01:18:40;22.90;54.50
20327;DHT22;20947;47.816;9.644;2022-07-29T01:27:11;22.90;54.50
20327;DHT22;20947;47.816;9.644;2022-07-29T01:31:22;22.90;54.50
20327;DHT22;20947;47.816;9.644;2022-07-29T01:35:36;22.90;54.40
20327;DHT22;20947;47.816;9.644;2022-07-29T01:39:39;22.90;54.40
20327;DHT22;20947;47.816;9.644;2022-07-29T01:43:51;22.90;54.40
20327;DHT22;20947;47.816;9.644;2022-07-29T01:48:05;22.90;54.40
20327;DHT22;20947;47.816;9.644;2022-07-29T01:52:31;22.90;54.50
20327;DHT22;20947;47.816;9.644;2022-07-29T01:56:35;22.90;54.40
20327;DHT22;20947;47.816;9.644;2022-07-29T02:00:37;22.90;54.50
20327;DHT22;20947;47.816;9.644;2022-07-29T02:04:40;22.90;54.50
20327;DHT22;20947;47.816;9.644;2022-07-29T02:08:44;22.90;54.50
20327;DHT22;20947;47.816;9.644;2022-07-29T02:12:46;22.90;54.50
20327;DHT22;20947;47.816;9.644;2022-07-29T02:16:50;22.90;54.40
20327;DHT22;20947;47.816;9.644;2022-07-29T02:20:54;22.90;54.40
20327;DHT22;20947;47.816;9.644;2022-07-29T02:24:58;22.90;54.40
20327;DHT22;20947;47.816;9.644;2022-07-29T02:29:04;22.90;54.40
20327;DHT22;20947;47.816;9.644;2022-07-29T02:33:05;22.90;54.40
20327;DHT22;20947;47.816;9.644;2022-07-29T02:37:09;22.90;54.50
20327;DHT22;20947;47.816;9.644;2022-07-29T02:41:26;22.90;54.40
20327;DHT22;20947;47.816;9.644;2022-07-29T02:45:28;22.90;54.50
20327;DHT22;20947;47.816;9.644;2022-07-29T02:53:35;22.90;54.40
20327;DHT22;20947;47.816;9.644;2022-07-29T02:57:43;22.90;54.50
20327;DHT22;20947;47.816;9.644;2022-07-29T03:01:44;22.90;54.40
20327;DHT22;20947;47.816;9.644;2022-07-29T03:05:45;22.90;54.50
20327;DHT22;20947;47.816;9.644;2022-07-29T03:09:51;22.90;54.40
20327;DHT22;20947;47.816;9.644;2022-07-29T03:13:57;22.90;54.40
20327;DHT22;20947;47.816;9.644;2022-07-29T03:17:58;22.90;54.40
20327;DHT22;20947;47.816;9.644;2022-07-29T03:22:00;22.90;54.40
20327;DHT22;20947;47.816;9.644;2022-07-29T03:26:00;22.90;54.50
20327;DHT22;20947;47.816;9.644;2022-07-29T03:30:01;22.80;54.40
20327;DHT22;20947;47.816;9.644;2022-07-29T03:34:02;22.80;55.00
20327;DHT22;20947;47.816;9.644;2022-07-29T03:38:03;22.80;54.40
20327;DHT22;20947;47.816;9.644;2022-07-29T03:42:04;22.80;54.40
20327;DHT22;20947;47.816;9.644;2022-07-29T03:46:08;22.80;54.40
20327;DHT22;20947;47.816;9.644;2022-07-29T03:50:11;22.80;54.40
20327;DHT22;20947;47.816;9.644;2022-07-29T03:54:17;22.80;54.40
20327;DHT22;20947;47.816;9.644;2022-07-29T03:58:18;22.80;54.40
20327;DHT22;20947;47.816;9.644;2022-07-29T04:02:20;22.80;54.40
20327;DHT22;20947;47.816;9.644;2022-07-29T04:06:21;22.80;54.40
20327;DHT22;20947;47.816;9.644;2022-07-29T04:10:24;22.80;54.40
20327;DHT22;20947;47.816;9.644;2022-07-29T04:14:24;22.90;54.50
20327;DHT22;20947;47.816;9.644;2022-07-29T04:18:27;22.80;55.10
20327;DHT22;20947;47.816;9.644;2022-07-29T04:22:29;22.80;54.40
20327;DHT22;20947;47.816;9.644;2022-07-29T04:26:30;22.80;54.40
20327;DHT22;20947;47.816;9.644;2022-07-29T04:30:33;22.80;54.50
20327;DHT22;20947;47.816;9.644;2022-07-29T04:34:34;22.80;54.40
20327;DHT22;20947;47.816;9.644;2022-07-29T04:38:35;22.80;54.40
20327;DHT22;20947;47.816;9.644;2022-07-29T04:42:35;22.80;54.40
20327;DHT22;20947;47.816;9.644;2022-07-29T04:46:36;22.80;54.50
20327;DHT22;20947;47.816;9.644;2022-07-29T04:50:40;22.80;54.50
20327;DHT22;20947;47.816;9.644;2022-07-29T04:54:41;22.80;54.50
20327;DHT22;20947;47.816;9.644;2022-07-29T04:58:41;22.80;54.50
20327;DHT22;20947;47.816;9.644;2022-07-29T05:02:42;22.80;54.50
20327;DHT22;20947;47.816;9.644;2022-07-29T05:06:42;22.80;54.50
20327;DHT22;20947;47.816;9.644;2022-07-29T05:10:43;22.80;54.60
20327;DHT22;20947;47.816;9.644;2022-07-29T05:14:44;22.80;54.50
20327;DHT22;20947;47.816;9.644;2022-07-29T05:18:44;22.80;54.60
20327;DHT22;20947;47.816;9.644;2022-07-29T05:22:45;22.80;54.60
20327;DHT22;20947;47.816;9.644;2022-07-29T05:26:48;22.80;54.60
20327;DHT22;20947;47.816;9.644;2022-07-29T05:30:51;22.80;54.50
20327;DHT22;20947;47.816;9.644;2022-07-29T05:34:51;22.80;54.60
20327;DHT22;20947;47.816;9.644;2022-07-29T05:38:52;22.80;54.40
20327;DHT22;20947;47.816;9.644;2022-07-29T05:42:57;22.80;54.40
20327;DHT22;20947;47.816;9.644;2022-07-29T05:46:58;22.80;54.60
20327;DHT22;20947;47.816;9.644;2022-07-29T05:51:03;22.80;54.50
20327;DHT22;20947;47.816;9.644;2022-07-29T05:55:05;22.80;54.40
20327;DHT22;20947;47.816;9.644;2022-07-29T05:59:08;22.80;54.80
20327;DHT22;20947;47.816;9.644;2022-07-29T06:03:09;22.80;54.70
20327;DHT22;20947;47.816;9.644;2022-07-29T06:07:09;22.80;53.70
20327;DHT22;20947;47.816;9.644;2022-07-29T06:11:13;22.90;53.30
20327;DHT22;20947;47.816;9.644;2022-07-29T06:15:16;23.00;53.00
20327;DHT22;20947;47.816;9.644;2022-07-29T06:19:19;23.10;52.60
20327;DHT22;20947;47.816;9.644;2022-07-29T06:23:20;23.10;52.40
20327;DHT22;20947;47.816;9.644;2022-07-29T06:27:23;23.10;51.90
20327;DHT22;20947;47.816;9.644;2022-07-29T06:31:26;23.20;51.80
20327;DHT22;20947;47.816;9.644;2022-07-29T06:35:27;23.20;51.60
20327;DHT22;20947;47.816;9.644;2022-07-29T06:39:28;23.20;51.40
20327;DHT22;20947;47.816;9.644;2022-07-29T06:43:38;23.30;51.50
20327;DHT22;20947;47.816;9.644;2022-07-29T06:47:41;23.30;51.20
20327;DHT22;20947;47.816;9.644;2022-07-29T06:51:44;23.30;51.20
20327;DHT22;20947;47.816;9.644;2022-07-29T06:55:48;23.30;51.00
20327;DHT22;20947;47.816;9.644;2022-07-29T06:59:48;23.30;50.90
20327;DHT22;20947;47.816;9.644;2022-07-29T07:03:49;23.30;50.80
20327;DHT22;20947;47.816;9.644;2022-07-29T07:07:54;23.40;50.80
20327;DHT22;20947;47.816;9.644;2022-07-29T07:11:54;23.40;50.70
20327;DHT22;20947;47.816;9.644;2022-07-29T07:15:55;23.40;50.40
20327;DHT22;20947;47.816;9.644;2022-07-29T07:19:56;23.40;50.30
20327;DHT22;20947;47.816;9.644;2022-07-29T07:23:57;23.40;50.80
20327;DHT22;20947;47.816;9.644;2022-07-29T07:27:58;23.40;50.50
20327;DHT22;20947;47.816;9.644;2022-07-29T07:32:00;23.40;50.30
20327;DHT22;20947;47.816;9.644;2022-07-29T07:36:02;23.40;50.40
20327;DHT22;20947;47.816;9.644;2022-07-29T07:40:03;23.40;50.10
20327;DHT22;20947;47.816;9.644;2022-07-29T07:44:04;23.40;50.00
20327;DHT22;20947;47.816;9.644;2022-07-29T07:48:05;23.50;50.00
20327;DHT22;20947;47.816;9.644;2022-07-29T07:52:13;23.50;49.90
20327;DHT22;20947;47.816;9.644;2022-07-29T07:56:15;23.50;49.80
20327;DHT22;20947;47.816;9.644;2022-07-29T08:00:18;23.50;50.00
20327;DHT22;20947;47.816;9.644;2022-07-29T08:04:23;23.50;49.70
20327;DHT22;20947;47.816;9.644;2022-07-29T08:08:29;23.50;49.90
20327;DHT22;20947;47.816;9.644;2022-07-29T08:12:30;23.50;49.90
20327;DHT22;20947;47.816;9.644;2022-07-29T08:16:32;23.50;49.80
20327;DHT22;20947;47.816;9.644;2022-07-29T08:20:33;23.50;49.70
20327;DHT22;20947;47.816;9.644;2022-07-29T08:24:35;23.50;49.50
20327;DHT22;20947;47.816;9.644;2022-07-29T08:28:52;23.50;49.70
20327;DHT22;20947;47.816;9.644;2022-07-29T08:32:53;23.50;49.70
20327;DHT22;20947;47.816;9.644;2022-07-29T08:36:55;23.50;49.80
20327;DHT22;20947;47.816;9.644;2022-07-29T08:40:56;23.60;49.80
20327;DHT22;20947;47.816;9.644;2022-07-29T08:44:57;23.60;49.30
20327;DHT22;20947;47.816;9.644;2022-07-29T08:48:58;23.60;49.30
20327;DHT22;20947;47.816;9.644;2022-07-29T08:52:59;23.60;49.20
20327;DHT22;20947;47.816;9.644;2022-07-29T08:57:00;23.60;49.20
20327;DHT22;20947;47.816;9.644;2022-07-29T09:01:02;23.60;49.20
20327;DHT22;20947;47.816;9.644;2022-07-29T09:05:06;23.60;49.20
20327;DHT22;20947;47.816;9.644;2022-07-29T09:09:09;23.60;49.20
20327;DHT22;20947;47.816;9.644;2022-07-29T09:13:10;23.60;49.20
20327;DHT22;20947;47.816;9.644;2022-07-29T09:17:17;23.70;49.70
20327;DHT22;20947;47.816;9.644;2022-07-29T09:21:24;23.60;49.20
20327;DHT22;20947;47.816;9.644;2022-07-29T09:25:44;23.70;49.20
20327;DHT22;20947;47.816;9.644;2022-07-29T09:29:49;23.70;49.20
20327;DHT22;20947;47.816;9.644;2022-07-29T09:33:58;23.70;49.20
20327;DHT22;20947;47.816;9.644;2022-07-29T09:38:26;23.70;48.80
20327;DHT22;20947;47.816;9.644;2022-07-29T09:42:30;23.70;49.10
20327;DHT22;20947;47.816;9.644;2022-07-29T09:46:35;23.70;48.90
20327;DHT22;20947;47.816;9.644;2022-07-29T09:50:42;23.70;48.80
20327;DHT22;20947;47.816;9.644;2022-07-29T09:54:47;23.70;49.00
20327;DHT22;20947;47.816;9.644;2022-07-29T09:58:49;23.70;48.70
20327;DHT22;20947;47.816;9.644;2022-07-29T10:03:07;23.70;48.60
20327;DHT22;20947;47.816;9.644;2022-07-29T10:07:08;23.70;48.90
20327;DHT22;20947;47.816;9.644;2022-07-29T10:11:14;23.70;48.70
20327;DHT22;20947;47.816;9.644;2022-07-29T10:15:17;23.70;48.60
20327;DHT22;20947;47.816;9.644;2022-07-29T10:19:19;23.70;48.50
20327;DHT22;20947;47.816;9.644;2022-07-29T10:23:19;23.70;48.50
20327;DHT22;20947;47.816;9.644;2022-07-29T10:27:23;23.70;48.50
20327;DHT22;20947;47.816;9.644;2022-07-29T10:31:31;23.70;48.70
20327;DHT22;20947;47.816;9.644;2022-07-29T10:43:51;23.70;48.40
20327;DHT22;20947;47.816;9.644;2022-07-29T10:48:03;23.70;48.40
20327;DHT22;20947;47.816;9.644;2022-07-29T10:52:09;23.80;48.80
20327;DHT22;20947;47.816;9.644;2022-07-29T10:56:27;23.60;50.00
20327;DHT22;20947;47.816;9.644;2022-07-29T11:00:33;23.50;50.50
20327;DHT22;20947;47.816;9.644;2022-07-29T11:08:43;23.30;51.00
20327;DHT22;20947;47.816;9.644;2022-07-29T11:17:02;23.40;51.10
20327;DHT22;20947;47.816;9.644;2022-07-29T11:21:03;23.40;51.00
20327;DHT22;20947;47.816;9.644;2022-07-29T11:25:17;23.40;51.40
20327;DHT22;20947;47.816;9.644;2022-07-29T11:29:21;23.40;51.40
20327;DHT22;20947;47.816;9.644;2022-07-29T11:33:33;23.40;51.30
20327;DHT22;20947;47.816;9.644;2022-07-29T11:37:37;23.30;51.20
20327;DHT22;20947;47.816;9.644;2022-07-29T11:41:40;23.30;51.30
20327;DHT22;20947;47.816;9.644;2022-07-29T11:45:48;23.30;51.40
20327;DHT22;20947;47.816;9.644;2022-07-29T11:49:56;23.30;51.40
20327;DHT22;20947;47.816;9.644;2022-07-29T11:54:00;23.30;51.40
20327;DHT22;20947;47.816;9.644;2022-07-29T11:58:01;23.30;51.50
20327;DHT22;20947;47.816;9.644;2022-07-29T12:02:07;23.30;51.70
20327;DHT22;20947;47.816;9.644;2022-07-29T12:06:14;23.30;51.60
20327;DHT22;20947;47.816;9.644;2022-07-29T12:10:17;23.30;51.70
20327;DHT22;20947;47.816;9.644;2022-07-29T12:14:30;23.30;51.60
20327;DHT22;20947;47.816;9.644;2022-07-29T12:18:31;23.30;51.60
20327;DHT22;20947;47.816;9.644;2022-07-29T12:22:41;23.30;51.70
20327;DHT22;20947;47.816;9.644;2022-07-29T12:26:51;23.30;51.70
20327;DHT22;20947;47.816;9.644;2022-07-29T12:30:57;23.30;51.70
20327;DHT22;20947;47.816;9.644;2022-07-29T12:35:01;23.30;51.70
20327;DHT22;20947;47.816;9.644;2022-07-29T12:39:05;23.30;51.80
20327;DHT22;20947;47.816;9.644;2022-07-29T12:43:06;23.30;52.60
20327;DHT22;20947;47.816;9.644;2022-07-29T12:47:07;23.30;52.60
20327;DHT22;20947;47.816;9.644;2022-07-29T12:51:10;23.30;52.50
20327;DHT22;20947;47.816;9.644;2022-07-29T12:55:12;23.30;52.40
20327;DHT22;20947;47.816;9.644;2022-07-29T12:59:13;23.30;52.40
20327;DHT22;20947;47.816;9.644;2022-07-29T13:03:19;23.30;53.40
20327;DHT22;20947;47.816;9.644;2022-07-29T13:07:24;23.40;52.50
20327;DHT22;20947;47.816;9.644;2022-07-29T13:11:39;23.40;52.60
20327;DHT22;20947;47.816;9.644;2022-07-29T13:15:45;23.40;52.70
20327;DHT22;20947;47.816;9.644;2022-07-29T13:19:52;23.40;52.60
20327;DHT22;20947;47.816;9.644;2022-07-29T13:23:56;23.40;52.80
20327;DHT22;20947;47.816;9.644;2022-07-29T13:27:56;23.50;53.10
20327;DHT22;20947;47.816;9.644;2022-07-29T13:31:59;23.50;53.20
20327;DHT22;20947;47.816;9.644;2022-07-29T13:36:02;23.50;53.40
20327;DHT22;20947;47.816;9.644;2022-07-29T13:40:11;23.50;53.40
20327;DHT22;20947;47.816;9.644;2022-07-29T13:44:12;23.50;53.40
20327;DHT22;20947;47.816;9.644;2022-07-29T13:48:17;23.50;53.30
20327;DHT22;20947;47.816;9.644;2022-07-29T13:52:22;23.50;53.30
20327;DHT22;20947;47.816;9.644;2022-07-29T13:56:27;23.50;53.30
20327;DHT22;20947;47.816;9.644;2022-07-29T14:00:30;23.50;53.30
20327;DHT22;20947;47.816;9.644;2022-07-29T14:04:33;23.50;53.20
20327;DHT22;20947;47.816;9.644;2022-07-29T14:08:34;23.50;53.30
20327;DHT22;20947;47.816;9.644;2022-07-29T14:12:35;23.50;53.40
20327;DHT22;20947;47.816;9.644;2022-07-29T14:16:40;23.50;53.70
20327;DHT22;20947;47.816;9.644;2022-07-29T14:20:41;23.50;54.10
20327;DHT22;20947;47.816;9.644;2022-07-29T14:24:48;23.50;54.00
20327;DHT22;20947;47.816;9.644;2022-07-29T14:28:49;23.50;54.30
20327;DHT22;20947;47.816;9.644;2022-07-29T14:32:54;23.50;54.40
20327;DHT22;20947;47.816;9.644;2022-07-29T14:36:59;23.50;54.20
20327;DHT22;20947;47.816;9.644;2022-07-29T14:41:00;23.50;53.80
20327;DHT22;20947;47.816;9.644;2022-07-29T14:45:04;23.50;53.80
20327;DHT22;20947;47.816;9.644;2022-07-29T14:49:08;23.50;54.00
20327;DHT22;20947;47.816;9.644;2022-07-29T14:53:11;23.50;53.90
20327;DHT22;20947;47.816;9.644;2022-07-29T14:57:14;23.50;53.80
20327;DHT22;20947;47.816;9.644;2022-07-29T15:01:15;23.50;54.10
20327;DHT22;20947;47.816;9.644;2022-07-29T15:05:15;23.50;54.20
20327;DHT22;20947;47.816;9.644;2022-07-29T15:09:18;23.50;54.40
20327;DHT22;20947;47.816;9.644;2022-07-29T15:13:19;23.50;54.30
20327;DHT22;20947;47.816;9.644;2022-07-29T15:17:20;23.50;54.50
20327;DHT22;20947;47.816;9.644;2022-07-29T15:21:20;23.50;54.30
20327;DHT22;20947;47.816;9.644;2022-07-29T15:25:22;23.50;54.40
20327;DHT22;20947;47.816;9.644;2022-07-29T15:29:23;23.50;54.60
20327;DHT22;20947;47.816;9.644;2022-07-29T15:33:26;23.50;54.50
20327;DHT22;20947;47.816;9.644;2022-07-29T15:37:29;23.50;54.80
20327;DHT22;20947;47.816;9.644;2022-07-29T15:41:35;23.40;54.70
20327;DHT22;20947;47.816;9.644;2022-07-29T15:45:40;23.40;54.60
20327;DHT22;20947;47.816;9.644;2022-07-29T15:49:43;23.40;54.60
20327;DHT22;20947;47.816;9.644;2022-07-29T15:53:45;23.40;54.60
20327;DHT22;20947;47.816;9.644;2022-07-29T15:57:48;23.50;54.50
20327;DHT22;20947;47.816;9.644;2022-07-29T16:01:49;23.40;54.40
20327;DHT22;20947;47.816;9.644;2022-07-29T16:05:50;23.40;54.20
20327;DHT22;20947;47.816;9.644;2022-07-29T16:09:55;23.40;54.20
20327;DHT22;20947;47.816;9.644;2022-07-29T16:13:55;23.40;54.20
20327;DHT22;20947;47.816;9.644;2022-07-29T16:17:58;23.30;54.00
20327;DHT22;20947;47.816;9.644;2022-07-29T16:22:01;23.30;54.00
20327;DHT22;20947;47.816;9.644;2022-07-29T16:26:04;23.30;54.00
20327;DHT22;20947;47.816;9.644;2022-07-29T16:30:08;23.30;54.00
20327;DHT22;20947;47.816;9.644;2022-07-29T16:34:14;23.30;54.00
20327;DHT22;20947;47.816;9.644;2022-07-29T16:38:14;23.30;54.10
20327;DHT22;20947;47.816;9.644;2022-07-29T16:42:17;23.30;54.10
20327;DHT22;20947;47.816;9.644;2022-07-29T16:46:18;23.30;54.10
20327;DHT22;20947;47.816;9.644;2022-07-29T16:50:21;23.30;54.10
20327;DHT22;20947;47.816;9.644;2022-07-29T16:54:24;23.30;54.10
20327;DHT22;20947;47.816;9.644;2022-07-29T16:58:30;23.20;54.00
20327;DHT22;20947;47.816;9.644;2022-07-29T17:02:35;23.30;54.20
20327;DHT22;20947;47.816;9.644;2022-07-29T17:06:41;23.30;54.30
20327;DHT22;20947;47.816;9.644;2022-07-29T17:10:44;23.20;54.20
20327;DHT22;20947;47.816;9.644;2022-07-29T17:14:45;23.20;54.20
20327;DHT22;20947;47.816;9.644;2022-07-29T17:18:49;23.20;54.20
20327;DHT22;20947;47.816;9.644;2022-07-29T17:22:52;23.20;54.20
20327;DHT22;20947;47.816;9.644;2022-07-29T17:26:53;23.20;54.30
20327;DHT22;20947;47.816;9.644;2022-07-29T17:30:53;23.20;54.30
20327;DHT22;20947;47.816;9.644;2022-07-29T17:34:56;23.20;54.30
20327;DHT22;20947;47.816;9.644;2022-07-29T17:39:02;23.20;54.30
20327;DHT22;20947;47.816;9.644;2022-07-29T17:43:07;23.20;54.30
20327;DHT22;20947;47.816;9.644;2022-07-29T17:47:10;23.20;54.30
20327;DHT22;20947;47.816;9.644;2022-07-29T17:51:11;23.20;55.00
20327;DHT22;20947;47.816;9.644;2022-07-29T17:55:12;23.20;54.40
20327;DHT22;20947;47.816;9.644;2022-07-29T17:59:15;23.20;54.40
20327;DHT22;20947;47.816;9.644;2022-07-29T18:03:18;23.20;54.40
20327;DHT22;20947;47.816;9.644;2022-07-29T18:07:21;23.20;54.40
20327;DHT22;20947;47.816;9.644;2022-07-29T18:11:23;23.20;54.40
20327;DHT22;20947;47.816;9.644;2022-07-29T18:15:24;23.20;54.40
20327;DHT22;20947;47.816;9.644;2022-07-29T18:19:25;23.20;54.40
20327;DHT22;20947;47.816;9.644;2022-07-29T18:23:25;23.20;54.40
20327;DHT22;20947;47.816;9.644;2022-07-29T18:27:26;23.20;54.50
20327;DHT22;20947;47.816;9.644;2022-07-29T18:31:27;23.20;54.40
20327;DHT22;20947;47.816;9.644;2022-07-29T18:35:30;23.20;54.60
20327;DHT22;20947;47.816;9.644;2022-07-29T18:39:33;23.20;54.60
20327;DHT22;20947;47.816;9.644;2022-07-29T18:43:34;23.10;54.40
20327;DHT22;20947;47.816;9.644;2022-07-29T18:47:35;23.10;54.40
20327;DHT22;20947;47.816;9.644;2022-07-29T18:51:42;23.10;54.40
20327;DHT22;20947;47.816;9.644;2022-07-29T18:55:45;23.10;54.40
20327;DHT22;20947;47.816;9.644;2022-07-29T18:59:50;23.10;54.50
20327;DHT22;20947;47.816;9.644;2022-07-29T19:03:53;23.10;54.50
20327;DHT22;20947;47.816;9.644;2022-07-29T19:07:56;23.10;54.50
20327;DHT22;20947;47.816;9.644;2022-07-29T19:11:59;23.10;54.60
20327;DHT22;20947;47.816;9.644;2022-07-29T19:16:00;23.10;54.60
20327;DHT22;20947;47.816;9.644;2022-07-29T19:20:03;23.10;54.70
20327;DHT22;20947;47.816;9.644;2022-07-29T19:24:10;23.10;54.60
20327;DHT22;20947;47.816;9.644;2022-07-29T19:28:16;23.10;54.60
20327;DHT22;20947;47.816;9.644;2022-07-29T19:32:18;23.10;54.60
20327;DHT22;20947;47.816;9.644;2022-07-29T19:36:19;23.10;54.60
20327;DHT22;20947;47.816;9.644;2022-07-29T19:40:24;23.10;54.60
20327;DHT22;20947;47.816;9.644;2022-07-29T19:44:27;23.10;54.60
20327;DHT22;20947;47.816;9.644;2022-07-29T19:48:28;23.10;54.50
20327;DHT22;20947;47.816;9.644;2022-07-29T19:52:33;23.10;54.60
20327;DHT22;20947;47.816;9.644;2022-07-29T19:56:35;23.10;54.60
20327;DHT22;20947;47.816;9.644;2022-07-29T20:00:41;23.10;54.70
20327;DHT22;20947;47.816;9.644;2022-07-29T20:04:44;23.10;54.70
20327;DHT22;20947;47.816;9.644;2022-07-29T20:08:45;23.10;54.70
20327;DHT22;20947;47.816;9.644;2022-07-29T20:12:50;23.10;54.70
20327;DHT22;20947;47.816;9.644;2022-07-29T20:16:52;23.10;54.60
20327;DHT22;20947;47.816;9.644;2022-07-29T20:20:57;23.10;54.60
20327;DHT22;20947;47.816;9.644;2022-07-29T20:25:01;23.10;54.70
20327;DHT22;20947;47.816;9.644;2022-07-29T20:29:02;23.10;54.70
20327;DHT22;20947;47.816;9.644;2022-07-29T20:33:04;23.10;54.70
20327;DHT22;20947;47.816;9.644;2022-07-29T20:37:08;23.10;54.60
20327;DHT22;20947;47.816;9.644;2022-07-29T20:41:13;23.10;54.60
20327;DHT22;20947;47.816;9.644;2022-07-29T20:45:14;23.10;54.70
20327;DHT22;20947;47.816;9.644;2022-07-29T20:49:15;23.10;54.60
20327;DHT22;20947;47.816;9.644;2022-07-29T20:53:17;23.10;54.60
20327;DHT22;20947;47.816;9.644;2022-07-29T20:57:21;23.10;54.60
20327;DHT22;20947;47.816;9.644;2022-07-29T21:01:22;23.10;54.70
20327;DHT22;20947;47.816;9.644;2022-07-29T21:05:25;23.10;54.60
20327;DHT22;20947;47.816;9.644;2022-07-29T21:09:28;23.10;55.30
20327;DHT22;20947;47.816;9.644;2022-07-29T21:13:29;23.10;54.60
20327;DHT22;20947;47.816;9.644;2022-07-29T21:17:32;23.10;54.60
20327;DHT22;20947;47.816;9.644;2022-07-29T21:21:42;23.10;54.60
20327;DHT22;20947;47.816;9.644;2022-07-29T21:25:43;23.10;54.60
20327;DHT22;20947;47.816;9.644;2022-07-29T21:29:46;23.10;54.70
20327;DHT22;20947;47.816;9.644;2022-07-29T21:33:48;23.10;54.60
20327;DHT22;20947;47.816;9.644;2022-07-29T21:37:49;23.10;54.70
20327;DHT22;20947;47.816;9.644;2022-07-29T21:41:54;23.00;54.50
20327;DHT22;20947;47.816;9.644;2022-07-29T21:45:56;23.00;54.50
20327;DHT22;20947;47.816;9.644;2022-07-29T21:49:57;23.10;54.60
20327;DHT22;20947;47.816;9.644;2022-07-29T21:54:05;23.10;54.60
20327;DHT22;20947;47.816;9.644;2022-07-29T21:58:07;23.00;54.50
20327;DHT22;20947;47.816;9.644;2022-07-29T22:02:07;23.00;54.50
20327;DHT22;20947;47.816;9.644;2022-07-29T22:06:10;23.00;54.50
20327;DHT22;20947;47.816;9.644;2022-07-29T22:10:14;23.00;54.50
20327;DHT22;20947;47.816;9.644;2022-07-29T22:14:17;23.00;54.50
20327;DHT22;20947;47.816;9.644;2022-07-29T22:18:22;23.00;54.50
20327;DHT22;20947;47.816;9.644;2022-07-29T22:22:23;23.00;54.50
20327;DHT22;20947;47.816;9.644;2022-07-29T22:26:24;23.00;54.40
20327;DHT22;20947;47.816;9.644;2022-07-29T22:30:27;23.00;54.50
20327;DHT22;20947;47.816;9.644;2022-07-29T22:34:30;23.00;54.40
20327;DHT22;20947;47.816;9.644;2022-07-29T22:38:33;23.00;55.10
20327;DHT22;20947;47.816;9.644;2022-07-29T22:42:34;23.00;54.50
20327;DHT22;20947;47.816;9.644;2022-07-29T22:46:37;23.00;54.60
20327;DHT22;20947;47.816;9.644;2022-07-29T22:50:40;23.00;54.50
20327;DHT22;20947;47.816;9.644;2022-07-29T22:54:41;23.00;54.50
20327;DHT22;20947;47.816;9.644;2022-07-29T22:58:42;23.00;54.50
20327;DHT22;20947;47.816;9.644;2022-07-29T23:02:45;23.00;54.60
20327;DHT22;20947;47.816;9.644;2022-07-29T23:06:49;23.00;54.60
20327;DHT22;20947;47.816;9.644;2022-07-29T23:10:50;23.00;54.40
20327;DHT22;20947;47.816;9.644;2022-07-29T23:14:53;23.00;54.50
20327;DHT22;20947;47.816;9.644;2022-07-29T23:18:58;23.00;54.40
20327;DHT22;20947;47.816;9.644;2022-07-29T23:23:01;23.00;54.50
20327;DHT22;20947;47.816;9.644;2022-07-29T23:27:02;23.00;54.50
20327;DHT22;20947;47.816;9.644;2022-07-29T23:31:05;23.00;54.50
20327;DHT22;20947;47.816;9.644;2022-07-29T23:35:06;23.00;54.50
20327;DHT22;20947;47.816;9.644;2022-07-29T23:39:11;23.00;54.60
20327;DHT22;20947;47.816;9.644;2022-07-29T23:43:17;23.00;54.50
20327;DHT22;20947;47.816;9.644;2022-07-29T23:47:20;23.00;54.40
20327;DHT22;20947;47.816;9.644;2022-07-29T23:51:23;23.00;54.50
20327;DHT22;20947;47.816;9.644;2022-07-29T23:55:24;23.00;54.50
20327;DHT22;20947;47.816;9.644;2022-07-29T23:59:24;23.00;54.50
